Wawasan Ruby — 3EVU7 — position and weather

sailwx.info

Track history (hours):
 
Tides and Currents Weather Stations Pressure Air Temp Water Temp Dewpoint Dewpoint Depression Visibility Wind Speed Wind Dir Waves Ship Positions

Wawasan Ruby

Last reported at 2016-Dec-09 09:28 UTC. Time now 2016-Dec-10 05:08 UTC.
Position N 31°12' E 121°50'.

Length 146 m; draft 6 m.

Type: Tanker. MMSI: 355619000.

Date/timePositionNaut miles runAvg speedWind from/ knotsBaromVisibWave heightAir tempDewpointWater temp
2016-Dec-09 09:28N 31°12' E 121°50'1111.6
2016-Dec-09 08:33N 31°20' E 121°41'1111.3
2016-Dec-09 07:33N 31°26' E 121°30'1111.3
2016-Dec-09 06:33N 31°33' E 121°20'1413.9
2016-Dec-09 05:33N 31°42' E 121°08'1312.8
2016-Dec-09 04:32N 31°49' E 120°55'20 9.8
2016-Dec-09 02:32N 32°00' E 120°36'1111.0
2016-Dec-09 01:33N 32°00' E 120°23'1212.5
2016-Dec-09 00:33N 31°56' E 120°09'6 5.2
2016-Dec-08 23:28N 31°57' E 120°03'0 0.0
2016-Dec-08 22:23N 31°57' E 120°03'0 0.0
2016-Dec-08 21:23N 31°57' E 120°03'0 0.0
2016-Dec-08 19:17N 31°57' E 120°03'0 0.0
2016-Dec-08 18:11N 31°57' E 120°03'0 0.0
2016-Dec-08 17:11N 31°57' E 120°03'0 0.0
2016-Dec-08 16:28N 31°57' E 120°03'0 0.0
2016-Dec-08 15:23N 31°57' E 120°03'0 0.0
2016-Dec-08 14:23N 31°57' E 120°03'0 0.0
2016-Dec-08 13:17N 31°57' E 120°03'0 0.0
2016-Dec-08 12:29N 31°57' E 120°03'0 0.0
2016-Dec-08 11:29N 31°57' E 120°03'0 0.0
2016-Dec-08 10:29N 31°57' E 120°03'0 0.0
2016-Dec-08 08:23N 31°57' E 120°03'0 0.0
2016-Dec-08 07:28N 31°57' E 120°03'1 1.2
2016-Dec-08 06:24N 31°58' E 120°01'0 0.0
2016-Dec-08 05:30N 31°58' E 120°01'0 0.0
2016-Dec-08 04:24N 31°58' E 120°01'0 0.0
2016-Dec-08 03:30N 31°58' E 120°01'0 0.0
2016-Dec-08 01:30N 31°58' E 120°01'0 0.0
2016-Dec-08 00:24N 31°58' E 120°01'0 0.0
2016-Dec-07 23:24N 31°58' E 120°01'0 0.0
2016-Dec-07 22:30N 31°58' E 120°01'6 0.5
2016-Dec-07 10:19N 31°57' E 120°08'8 9.9
2016-Dec-07 09:33N 31°57' E 120°17'8 7.5
2016-Dec-07 08:26N 31°58' E 120°26'0 0.0
2016-Dec-07 07:26N 31°58' E 120°26'0 0.0
2016-Dec-07 05:32N 31°58' E 120°26'0 0.0
2016-Dec-07 03:32N 31°58' E 120°26'0 0.0
2016-Dec-07 02:26N 31°58' E 120°26'0 0.0
2016-Dec-07 01:26N 31°58' E 120°26'0 0.0
2016-Dec-06 22:32N 31°58' E 120°26'0 0.0
2016-Dec-06 21:08N 31°58' E 120°26'0 0.0
2016-Dec-06 20:23N 31°58' E 120°26'0 0.0
2016-Dec-06 18:08N 31°58' E 120°26'0 0.0
2016-Dec-06 17:17N 31°58' E 120°26'0 0.0
2016-Dec-06 15:20N 31°58' E 120°26'0 0.0
2016-Dec-06 14:32N 31°58' E 120°26'0 0.0
2016-Dec-06 13:20N 31°58' E 120°26'0 0.0
2016-Dec-06 12:32N 31°58' E 120°26'0 0.0
2016-Dec-06 11:32N 31°58' E 120°26'0 0.0
2016-Dec-06 10:26N 31°58' E 120°26'0 0.0
2016-Dec-06 09:32N 31°58' E 120°26'0 0.0
2016-Dec-06 08:26N 31°58' E 120°26'0 0.0
2016-Dec-06 07:32N 31°58' E 120°26'0 0.0
2016-Dec-06 05:32N 31°58' E 120°26'0 0.0
2016-Dec-06 04:32N 31°58' E 120°26'0 0.2
2016-Dec-06 03:33N 31°59' E 120°27'6 5.6
2016-Dec-06 02:33N 32°01' E 120°33'20 1.1
2016-Dec-05 08:31N 31°52' E 120°54'1212.7
2016-Dec-05 07:34N 31°45' E 121°05'1414.4
2016-Dec-05 06:34N 31°36' E 121°18'1212.3
2016-Dec-05 05:33N 31°27' E 121°28'9 9.3
2016-Dec-05 04:33N 31°22' E 121°37'1010.1
2016-Dec-05 03:33N 31°18' E 121°48'14 9.8
2016-Dec-05 02:06N 31°14' E 122°04'97 5.2
2016-Dec-04 07:33N 29°40' E 122°30'1111.3
2016-Dec-04 06:33N 29°45' E 122°18'1010.0
2016-Dec-04 05:33N 29°53' E 122°11'9 9.0
2016-Dec-04 04:33N 29°56' E 122°01'7 7.1
2016-Dec-04 03:33N 29°57' E 121°53'7 0.4
2016-Dec-03 07:11N 29°59' E 121°45'1 2.3
2016-Dec-03 06:33N 29°59' E 121°46'6 6.2
2016-Dec-03 05:33N 29°58' E 121°53'1211.8
2016-Dec-03 04:33N 29°56' E 122°07'1111.4
2016-Dec-03 03:33N 29°47' E 122°16'10 9.6
2016-Dec-03 02:33N 29°45' E 122°27'3 2.1
2016-Dec-03 01:22N 29°45' E 122°30'0 0.0
2016-Dec-03 00:22N 29°45' E 122°30'0 0.1
2016-Dec-02 23:31N 29°45' E 122°30'0 0.1
2016-Dec-02 22:28N 29°45' E 122°30'0 0.0
2016-Dec-02 21:16N 29°45' E 122°30'0 0.1
2016-Dec-02 20:28N 29°45' E 122°30'0 0.0
2016-Dec-02 19:16N 29°45' E 122°30'0 0.1
2016-Dec-02 18:28N 29°45' E 122°30'0 0.0
2016-Dec-02 17:22N 29°45' E 122°30'0 0.1
2016-Dec-02 16:22N 29°45' E 122°30'0 0.1
2016-Dec-02 15:10N 29°45' E 122°30'0 0.0
2016-Dec-02 14:10N 29°45' E 122°30'0 0.1
2016-Dec-02 13:22N 29°45' E 122°30'0 0.1
2016-Dec-02 12:31N 29°45' E 122°30'0 0.1
2016-Dec-02 11:28N 29°45' E 122°30'0 0.1
2016-Dec-02 10:28N 29°45' E 122°30'5 1.3
2016-Dec-02 06:28N 29°40' E 122°32'20 9.5
2016-Dec-02 04:21N 29°20' E 122°32'  
Track history (hours):
 
Tides and Currents Weather Stations Pressure Air Temp Water Temp Dewpoint Dewpoint Depression Visibility Wind Speed Wind Dir Waves Ship Positions

Wawasan Ruby

Last reported at 2016-Dec-09 09:28 UTC. Time now 2016-Dec-10 05:08 UTC.
Position N 31°12' E 121°50'.

Length 146 m; draft 6 m.

Type: Tanker. MMSI: 355619000.

Date/timePositionNaut miles runAvg speedWind from/ knotsBaromVisibWave heightAir tempDewpointWater temp
2016-Dec-09 09:28N 31°12' E 121°50'1111.6
2016-Dec-09 08:33N 31°20' E 121°41'1111.3
2016-Dec-09 07:33N 31°26' E 121°30'1111.3
2016-Dec-09 06:33N 31°33' E 121°20'1413.9
2016-Dec-09 05:33N 31°42' E 121°08'1312.8
2016-Dec-09 04:32N 31°49' E 120°55'20 9.8
2016-Dec-09 02:32N 32°00' E 120°36'1111.0
2016-Dec-09 01:33N 32°00' E 120°23'1212.5
2016-Dec-09 00:33N 31°56' E 120°09'6 5.2
2016-Dec-08 23:28N 31°57' E 120°03'0 0.0
2016-Dec-08 22:23N 31°57' E 120°03'0 0.0
2016-Dec-08 21:23N 31°57' E 120°03'0 0.0
2016-Dec-08 19:17N 31°57' E 120°03'0 0.0
2016-Dec-08 18:11N 31°57' E 120°03'0 0.0
2016-Dec-08 17:11N 31°57' E 120°03'0 0.0
2016-Dec-08 16:28N 31°57' E 120°03'0 0.0
2016-Dec-08 15:23N 31°57' E 120°03'0 0.0
2016-Dec-08 14:23N 31°57' E 120°03'0 0.0
2016-Dec-08 13:17N 31°57' E 120°03'0 0.0
2016-Dec-08 12:29N 31°57' E 120°03'0 0.0
2016-Dec-08 11:29N 31°57' E 120°03'0 0.0
2016-Dec-08 10:29N 31°57' E 120°03'0 0.0
2016-Dec-08 08:23N 31°57' E 120°03'0 0.0
2016-Dec-08 07:28N 31°57' E 120°03'1 1.2
2016-Dec-08 06:24N 31°58' E 120°01'0 0.0
2016-Dec-08 05:30N 31°58' E 120°01'0 0.0
2016-Dec-08 04:24N 31°58' E 120°01'0 0.0
2016-Dec-08 03:30N 31°58' E 120°01'0 0.0
2016-Dec-08 01:30N 31°58' E 120°01'0 0.0
2016-Dec-08 00:24N 31°58' E 120°01'0 0.0
2016-Dec-07 23:24N 31°58' E 120°01'0 0.0
2016-Dec-07 22:30N 31°58' E 120°01'6 0.5
2016-Dec-07 10:19N 31°57' E 120°08'8 9.9
2016-Dec-07 09:33N 31°57' E 120°17'8 7.5
2016-Dec-07 08:26N 31°58' E 120°26'0 0.0
2016-Dec-07 07:26N 31°58' E 120°26'0 0.0
2016-Dec-07 05:32N 31°58' E 120°26'0 0.0
2016-Dec-07 03:32N 31°58' E 120°26'0 0.0
2016-Dec-07 02:26N 31°58' E 120°26'0 0.0
2016-Dec-07 01:26N 31°58' E 120°26'0 0.0
2016-Dec-06 22:32N 31°58' E 120°26'0 0.0
2016-Dec-06 21:08N 31°58' E 120°26'0 0.0
2016-Dec-06 20:23N 31°58' E 120°26'0 0.0
2016-Dec-06 18:08N 31°58' E 120°26'0 0.0
2016-Dec-06 17:17N 31°58' E 120°26'0 0.0
2016-Dec-06 15:20N 31°58' E 120°26'0 0.0
2016-Dec-06 14:32N 31°58' E 120°26'0 0.0
2016-Dec-06 13:20N 31°58' E 120°26'0 0.0
2016-Dec-06 12:32N 31°58' E 120°26'0 0.0
2016-Dec-06 11:32N 31°58' E 120°26'0 0.0
2016-Dec-06 10:26N 31°58' E 120°26'0 0.0
2016-Dec-06 09:32N 31°58' E 120°26'0 0.0
2016-Dec-06 08:26N 31°58' E 120°26'0 0.0
2016-Dec-06 07:32N 31°58' E 120°26'0 0.0
2016-Dec-06 05:32N 31°58' E 120°26'0 0.0
2016-Dec-06 04:32N 31°58' E 120°26'0 0.2
2016-Dec-06 03:33N 31°59' E 120°27'6 5.6
2016-Dec-06 02:33N 32°01' E 120°33'20 1.1
2016-Dec-05 08:31N 31°52' E 120°54'1212.7
2016-Dec-05 07:34N 31°45' E 121°05'1414.4
2016-Dec-05 06:34N 31°36' E 121°18'1212.3
2016-Dec-05 05:33N 31°27' E 121°28'9 9.3
2016-Dec-05 04:33N 31°22' E 121°37'1010.1
2016-Dec-05 03:33N 31°18' E 121°48'14 9.8
2016-Dec-05 02:06N 31°14' E 122°04'97 5.2
2016-Dec-04 07:33N 29°40' E 122°30'1111.3
2016-Dec-04 06:33N 29°45' E 122°18'1010.0
2016-Dec-04 05:33N 29°53' E 122°11'9 9.0
2016-Dec-04 04:33N 29°56' E 122°01'7 7.1
2016-Dec-04 03:33N 29°57' E 121°53'7 0.4
2016-Dec-03 07:11N 29°59' E 121°45'1 2.3
2016-Dec-03 06:33N 29°59' E 121°46'6 6.2
2016-Dec-03 05:33N 29°58' E 121°53'1211.8
2016-Dec-03 04:33N 29°56' E 122°07'1111.4
2016-Dec-03 03:33N 29°47' E 122°16'10 9.6
2016-Dec-03 02:33N 29°45' E 122°27'3 2.1
2016-Dec-03 01:22N 29°45' E 122°30'0 0.0
2016-Dec-03 00:22N 29°45' E 122°30'0 0.1
2016-Dec-02 23:31N 29°45' E 122°30'0 0.1
2016-Dec-02 22:28N 29°45' E 122°30'0 0.0
2016-Dec-02 21:16N 29°45' E 122°30'0 0.1
2016-Dec-02 20:28N 29°45' E 122°30'0 0.0
2016-Dec-02 19:16N 29°45' E 122°30'0 0.1
2016-Dec-02 18:28N 29°45' E 122°30'0 0.0
2016-Dec-02 17:22N 29°45' E 122°30'0 0.1
2016-Dec-02 16:22N 29°45' E 122°30'0 0.1
2016-Dec-02 15:10N 29°45' E 122°30'0 0.0
2016-Dec-02 14:10N 29°45' E 122°30'0 0.1
2016-Dec-02 13:22N 29°45' E 122°30'0 0.1
2016-Dec-02 12:31N 29°45' E 122°30'0 0.1
2016-Dec-02 11:28N 29°45' E 122°30'0 0.1
2016-Dec-02 10:28N 29°45' E 122°30'5 1.3
2016-Dec-02 06:28N 29°40' E 122°32'20 9.5
2016-Dec-02 04:21N 29°20' E 122°32'  

Dump ship's entire track history